Impacts TAF Board
For situational awareness. Not to be used for flight planning purposes.
IDs:

KACT - Waco Rgnl, TX, US

Issued at 0520 UTC 19 Aug 2019
Updated at 0526 UTC 19 Aug 2019
Potential Impact None Slight Moderate High
Time<<19/18Z 19/19Z 19/20Z 19/21Z 19/22Z 19/23Z 20/00Z 20/01Z 20/02Z 20/03Z 20/04Z 20/05Z 20/06Z>>
Type PRVL PRVL PRVL PRVL PRVL PRVL PRVL PRVL PRVL PRVL PRVL PRVL
VIS >6 >6 >6 >6 >6 >6 >6 >6 >6 >6 >6 >6
CIG -- -- -- -- -- -- -- -- -- -- -- --
Cover FEW FEW FEW FEW FEW FEW FEW FEW FEW FEW FEW FEW
FltCat VFR VFR VFR VFR VFR VFR VFR VFR VFR VFR VFR VFR
WX -- -- -- -- -- -- -- -- -- -- -- --
WDir 160 160 160 160 160 160 160 160 160 160 160 160
WSpd 11 11 11 11 11 11 11 11 11 11 11 11
WGst -- -- -- -- -- -- -- -- -- -- -- --
Raw TAF
KACT 190520Z 1906/2006 16011KT P6SM FEW050
  TEMPO 1911/1913 BKN022


METAR Board
Radar Display
Forecast Discussion
For situational awareness. Not to be used for flight planning purposes.